sensor_id;sensor_type;location;lat;lon;timestamp;P1;durP1;ratioP1;P2;durP2;ratioP2
30303;SDS011;17112;48.636;10.152;2023-07-28T00:01:55;4.07;;;1.90;;
30303;SDS011;17112;48.636;10.152;2023-07-28T00:04:21;4.10;;;2.00;;
30303;SDS011;17112;48.636;10.152;2023-07-28T00:06:46;4.05;;;2.00;;
30303;SDS011;17112;48.636;10.152;2023-07-28T00:09:12;6.38;;;2.20;;
30303;SDS011;17112;48.636;10.152;2023-07-28T00:11:38;7.00;;;1.85;;
30303;SDS011;17112;48.636;10.152;2023-07-28T00:14:03;2.92;;;2.10;;
30303;SDS011;17112;48.636;10.152;2023-07-28T00:16:29;2.72;;;2.10;;
30303;SDS011;17112;48.636;10.152;2023-07-28T00:18:55;5.40;;;2.30;;
30303;SDS011;17112;48.636;10.152;2023-07-28T00:21:20;4.85;;;2.40;;
30303;SDS011;17112;48.636;10.152;2023-07-28T00:23:46;2.42;;;1.98;;
30303;SDS011;17112;48.636;10.152;2023-07-28T00:26:12;2.58;;;2.25;;
30303;SDS011;17112;48.636;10.152;2023-07-28T00:28:37;5.15;;;2.58;;
30303;SDS011;17112;48.636;10.152;2023-07-28T00:31:03;2.90;;;2.08;;
30303;SDS011;17112;48.636;10.152;2023-07-28T00:33:28;2.30;;;2.10;;
30303;SDS011;17112;48.636;10.152;2023-07-28T00:35:54;2.38;;;2.17;;
30303;SDS011;17112;48.636;10.152;2023-07-28T00:38:20;3.15;;;2.30;;
30303;SDS011;17112;48.636;10.152;2023-07-28T00:40:45;2.28;;;2.00;;
30303;SDS011;17112;48.636;10.152;2023-07-28T00:43:11;2.67;;;1.70;;
30303;SDS011;17112;48.636;10.152;2023-07-28T00:45:37;3.33;;;2.10;;
30303;SDS011;17112;48.636;10.152;2023-07-28T00:48:03;3.53;;;1.98;;
30303;SDS011;17112;48.636;10.152;2023-07-28T00:50:37;3.20;;;2.10;;
30303;SDS011;17112;48.636;10.152;2023-07-28T00:53:03;3.75;;;2.05;;
30303;SDS011;17112;48.636;10.152;2023-07-28T00:55:29;2.83;;;1.77;;
30303;SDS011;17112;48.636;10.152;2023-07-28T00:57:55;2.28;;;1.70;;
30303;SDS011;17112;48.636;10.152;2023-07-28T01:00:22;2.00;;;1.67;;
30303;SDS011;17112;48.636;10.152;2023-07-28T01:02:47;4.05;;;1.60;;
30303;SDS011;17112;48.636;10.152;2023-07-28T01:05:13;2.15;;;1.70;;
30303;SDS011;17112;48.636;10.152;2023-07-28T01:07:59;1.90;;;1.80;;
30303;SDS011;17112;48.636;10.152;2023-07-28T01:10:59;2.22;;;1.80;;
30303;SDS011;17112;48.636;10.152;2023-07-28T01:13:25;3.05;;;1.90;;
30303;SDS011;17112;48.636;10.152;2023-07-28T01:15:50;6.75;;;2.05;;
30303;SDS011;17112;48.636;10.152;2023-07-28T01:18:16;3.17;;;1.95;;
30303;SDS011;17112;48.636;10.152;2023-07-28T01:20:42;5.35;;;2.10;;
30303;SDS011;17112;48.636;10.152;2023-07-28T01:23:18;3.53;;;2.10;;
30303;SDS011;17112;48.636;10.152;2023-07-28T01:28:40;3.63;;;1.65;;
30303;SDS011;17112;48.636;10.152;2023-07-28T01:31:07;2.22;;;1.88;;
30303;SDS011;17112;48.636;10.152;2023-07-28T01:33:33;4.35;;;2.22;;
30303;SDS011;17112;48.636;10.152;2023-07-28T01:35:59;2.53;;;1.95;;
30303;SDS011;17112;48.636;10.152;2023-07-28T01:38:26;3.03;;;1.92;;
30303;SDS011;17112;48.636;10.152;2023-07-28T01:40:52;3.60;;;2.10;;
30303;SDS011;17112;48.636;10.152;2023-07-28T01:43:18;5.75;;;2.20;;
30303;SDS011;17112;48.636;10.152;2023-07-28T01:45:44;2.72;;;2.10;;
30303;SDS011;17112;48.636;10.152;2023-07-28T01:48:09;2.25;;;2.00;;
30303;SDS011;17112;48.636;10.152;2023-07-28T01:50:35;2.65;;;1.92;;
30303;SDS011;17112;48.636;10.152;2023-07-28T01:53:01;6.68;;;2.20;;
30303;SDS011;17112;48.636;10.152;2023-07-28T01:55:27;2.47;;;1.90;;
30303;SDS011;17112;48.636;10.152;2023-07-28T01:57:57;2.08;;;1.88;;
30303;SDS011;17112;48.636;10.152;2023-07-28T02:00:24;4.57;;;2.28;;
30303;SDS011;17112;48.636;10.152;2023-07-28T02:02:50;3.10;;;2.08;;
30303;SDS011;17112;48.636;10.152;2023-07-28T02:05:16;3.70;;;2.05;;
30303;SDS011;17112;48.636;10.152;2023-07-28T02:07:42;3.10;;;1.85;;
30303;SDS011;17112;48.636;10.152;2023-07-28T02:10:08;2.63;;;2.10;;
30303;SDS011;17112;48.636;10.152;2023-07-28T02:12:35;3.03;;;1.75;;
30303;SDS011;17112;48.636;10.152;2023-07-28T02:15:01;3.72;;;2.00;;
30303;SDS011;17112;48.636;10.152;2023-07-28T02:17:27;3.35;;;1.95;;
30303;SDS011;17112;48.636;10.152;2023-07-28T02:19:53;2.85;;;2.00;;
30303;SDS011;17112;48.636;10.152;2023-07-28T02:22:18;2.50;;;2.00;;
30303;SDS011;17112;48.636;10.152;2023-07-28T02:24:44;2.63;;;2.00;;
30303;SDS011;17112;48.636;10.152;2023-07-28T02:27:10;2.10;;;1.90;;
30303;SDS011;17112;48.636;10.152;2023-07-28T02:29:35;4.10;;;2.00;;
30303;SDS011;17112;48.636;10.152;2023-07-28T02:32:01;2.08;;;1.88;;
30303;SDS011;17112;48.636;10.152;2023-07-28T02:34:27;2.22;;;2.03;;
30303;SDS011;17112;48.636;10.152;2023-07-28T02:36:53;2.60;;;2.13;;
30303;SDS011;17112;48.636;10.152;2023-07-28T02:39:18;3.75;;;2.30;;
30303;SDS011;17112;48.636;10.152;2023-07-28T02:41:45;2.00;;;1.80;;
30303;SDS011;17112;48.636;10.152;2023-07-28T02:44:11;3.55;;;2.40;;
30303;SDS011;17112;48.636;10.152;2023-07-28T02:46:36;6.57;;;2.10;;
30303;SDS011;17112;48.636;10.152;2023-07-28T02:49:02;3.60;;;1.92;;
30303;SDS011;17112;48.636;10.152;2023-07-28T02:51:29;5.32;;;1.77;;
30303;SDS011;17112;48.636;10.152;2023-07-28T02:53:55;2.88;;;1.73;;
30303;SDS011;17112;48.636;10.152;2023-07-28T02:56:21;4.47;;;2.00;;
30303;SDS011;17112;48.636;10.152;2023-07-28T02:58:47;3.92;;;1.90;;
30303;SDS011;17112;48.636;10.152;2023-07-28T03:01:13;3.38;;;2.00;;
30303;SDS011;17112;48.636;10.152;2023-07-28T03:03:39;2.08;;;1.85;;
30303;SDS011;17112;48.636;10.152;2023-07-28T03:06:05;2.58;;;2.17;;
30303;SDS011;17112;48.636;10.152;2023-07-28T03:08:31;3.33;;;2.20;;
30303;SDS011;17112;48.636;10.152;2023-07-28T03:10:57;4.25;;;1.85;;
30303;SDS011;17112;48.636;10.152;2023-07-28T03:13:23;2.20;;;1.83;;
30303;SDS011;17112;48.636;10.152;2023-07-28T03:15:49;5.10;;;2.00;;
30303;SDS011;17112;48.636;10.152;2023-07-28T03:18:15;2.88;;;2.00;;
30303;SDS011;17112;48.636;10.152;2023-07-28T03:20:40;2.13;;;1.85;;
30303;SDS011;17112;48.636;10.152;2023-07-28T03:23:06;2.60;;;1.90;;
30303;SDS011;17112;48.636;10.152;2023-07-28T03:25:32;2.40;;;2.05;;
30303;SDS011;17112;48.636;10.152;2023-07-28T03:27:58;2.28;;;1.83;;
30303;SDS011;17112;48.636;10.152;2023-07-28T03:30:23;2.95;;;1.95;;
30303;SDS011;17112;48.636;10.152;2023-07-28T03:32:49;2.70;;;2.00;;
30303;SDS011;17112;48.636;10.152;2023-07-28T03:35:15;2.97;;;2.08;;
30303;SDS011;17112;48.636;10.152;2023-07-28T03:37:40;2.00;;;1.80;;
30303;SDS011;17112;48.636;10.152;2023-07-28T03:40:06;5.82;;;2.10;;
30303;SDS011;17112;48.636;10.152;2023-07-28T03:42:32;3.30;;;1.90;;
30303;SDS011;17112;48.636;10.152;2023-07-28T03:44:59;3.00;;;1.92;;
30303;SDS011;17112;48.636;10.152;2023-07-28T03:47:24;3.40;;;2.03;;
30303;SDS011;17112;48.636;10.152;2023-07-28T03:49:50;6.32;;;2.08;;
30303;SDS011;17112;48.636;10.152;2023-07-28T03:52:16;5.40;;;1.77;;
30303;SDS011;17112;48.636;10.152;2023-07-28T03:54:42;6.45;;;1.75;;
30303;SDS011;17112;48.636;10.152;2023-07-28T03:57:08;2.72;;;1.92;;
30303;SDS011;17112;48.636;10.152;2023-07-28T03:59:35;3.55;;;1.90;;
30303;SDS011;17112;48.636;10.152;2023-07-28T04:02:00;1.85;;;1.60;;
30303;SDS011;17112;48.636;10.152;2023-07-28T04:04:26;9.48;;;1.80;;
30303;SDS011;17112;48.636;10.152;2023-07-28T04:06:52;2.97;;;2.00;;
30303;SDS011;17112;48.636;10.152;2023-07-28T04:09:19;3.40;;;1.85;;
30303;SDS011;17112;48.636;10.152;2023-07-28T04:11:45;2.13;;;1.90;;
30303;SDS011;17112;48.636;10.152;2023-07-28T04:14:11;2.30;;;1.85;;
30303;SDS011;17112;48.636;10.152;2023-07-28T04:16:37;2.80;;;2.00;;
30303;SDS011;17112;48.636;10.152;2023-07-28T04:19:03;4.13;;;2.10;;
30303;SDS011;17112;48.636;10.152;2023-07-28T04:21:28;3.67;;;2.60;;
30303;SDS011;17112;48.636;10.152;2023-07-28T04:23:54;3.90;;;2.53;;
30303;SDS011;17112;48.636;10.152;2023-07-28T04:26:20;3.58;;;2.75;;
30303;SDS011;17112;48.636;10.152;2023-07-28T04:28:45;3.80;;;3.03;;
30303;SDS011;17112;48.636;10.152;2023-07-28T04:31:11;4.45;;;2.80;;
30303;SDS011;17112;48.636;10.152;2023-07-28T04:33:38;3.55;;;2.92;;
30303;SDS011;17112;48.636;10.152;2023-07-28T04:36:06;4.53;;;2.80;;
30303;SDS011;17112;48.636;10.152;2023-07-28T04:38:31;3.05;;;2.20;;
30303;SDS011;17112;48.636;10.152;2023-07-28T04:40:57;5.82;;;2.20;;
30303;SDS011;17112;48.636;10.152;2023-07-28T04:43:23;11.30;;;1.98;;
30303;SDS011;17112;48.636;10.152;2023-07-28T04:45:48;3.63;;;2.00;;
30303;SDS011;17112;48.636;10.152;2023-07-28T04:48:14;5.82;;;1.73;;
30303;SDS011;17112;48.636;10.152;2023-07-28T04:50:40;7.13;;;2.17;;
30303;SDS011;17112;48.636;10.152;2023-07-28T04:53:05;8.57;;;1.92;;
30303;SDS011;17112;48.636;10.152;2023-07-28T04:55:31;6.30;;;2.30;;
30303;SDS011;17112;48.636;10.152;2023-07-28T04:57:57;16.35;;;2.00;;
30303;SDS011;17112;48.636;10.152;2023-07-28T05:00:22;7.93;;;2.03;;
30303;SDS011;17112;48.636;10.152;2023-07-28T05:02:48;5.25;;;2.47;;
30303;SDS011;17112;48.636;10.152;2023-07-28T05:05:14;10.02;;;2.35;;
30303;SDS011;17112;48.636;10.152;2023-07-28T05:07:40;8.70;;;2.22;;
30303;SDS011;17112;48.636;10.152;2023-07-28T05:10:06;3.17;;;2.10;;
30303;SDS011;17112;48.636;10.152;2023-07-28T05:12:32;8.00;;;2.80;;
30303;SDS011;17112;48.636;10.152;2023-07-28T05:14:57;3.95;;;2.50;;
30303;SDS011;17112;48.636;10.152;2023-07-28T05:17:23;3.50;;;2.47;;
30303;SDS011;17112;48.636;10.152;2023-07-28T05:19:52;3.83;;;2.20;;
30303;SDS011;17112;48.636;10.152;2023-07-28T05:22:17;8.52;;;2.40;;
30303;SDS011;17112;48.636;10.152;2023-07-28T05:24:43;10.95;;;2.42;;
30303;SDS011;17112;48.636;10.152;2023-07-28T05:27:10;5.03;;;2.38;;
30303;SDS011;17112;48.636;10.152;2023-07-28T05:29:36;7.30;;;2.60;;
30303;SDS011;17112;48.636;10.152;2023-07-28T05:32:02;2.90;;;2.35;;
30303;SDS011;17112;48.636;10.152;2023-07-28T05:34:28;6.95;;;2.30;;
30303;SDS011;17112;48.636;10.152;2023-07-28T05:36:54;6.82;;;2.42;;
30303;SDS011;17112;48.636;10.152;2023-07-28T05:39:20;3.53;;;2.13;;
30303;SDS011;17112;48.636;10.152;2023-07-28T05:41:45;4.88;;;2.47;;
30303;SDS011;17112;48.636;10.152;2023-07-28T05:44:11;4.25;;;2.70;;
30303;SDS011;17112;48.636;10.152;2023-07-28T05:46:37;7.57;;;2.60;;
30303;SDS011;17112;48.636;10.152;2023-07-28T05:49:02;4.45;;;2.20;;
30303;SDS011;17112;48.636;10.152;2023-07-28T05:51:28;7.50;;;2.30;;
30303;SDS011;17112;48.636;10.152;2023-07-28T05:53:54;3.95;;;2.08;;
30303;SDS011;17112;48.636;10.152;2023-07-28T05:56:20;6.03;;;2.50;;
30303;SDS011;17112;48.636;10.152;2023-07-28T05:58:46;4.57;;;2.63;;
30303;SDS011;17112;48.636;10.152;2023-07-28T06:01:12;3.22;;;2.65;;
30303;SDS011;17112;48.636;10.152;2023-07-28T06:03:38;9.43;;;3.15;;
30303;SDS011;17112;48.636;10.152;2023-07-28T06:06:03;4.95;;;2.17;;
30303;SDS011;17112;48.636;10.152;2023-07-28T06:08:29;4.88;;;2.05;;
30303;SDS011;17112;48.636;10.152;2023-07-28T06:10:55;5.72;;;2.03;;
30303;SDS011;17112;48.636;10.152;2023-07-28T06:13:20;4.82;;;2.42;;
30303;SDS011;17112;48.636;10.152;2023-07-28T06:15:46;4.05;;;2.42;;
30303;SDS011;17112;48.636;10.152;2023-07-28T06:18:12;3.53;;;2.42;;
30303;SDS011;17112;48.636;10.152;2023-07-28T06:20:41;4.38;;;2.45;;
30303;SDS011;17112;48.636;10.152;2023-07-28T06:23:07;5.55;;;2.35;;
30303;SDS011;17112;48.636;10.152;2023-07-28T06:25:33;5.03;;;2.33;;
30303;SDS011;17112;48.636;10.152;2023-07-28T06:27:59;4.85;;;2.70;;
30303;SDS011;17112;48.636;10.152;2023-07-28T06:30:25;4.60;;;2.58;;
30303;SDS011;17112;48.636;10.152;2023-07-28T06:32:51;4.50;;;2.30;;
30303;SDS011;17112;48.636;10.152;2023-07-28T06:35:16;6.45;;;2.22;;
30303;SDS011;17112;48.636;10.152;2023-07-28T06:37:42;5.20;;;2.45;;
30303;SDS011;17112;48.636;10.152;2023-07-28T06:40:08;3.13;;;2.05;;
30303;SDS011;17112;48.636;10.152;2023-07-28T06:42:34;7.35;;;2.05;;
30303;SDS011;17112;48.636;10.152;2023-07-28T06:45:02;7.88;;;2.72;;
30303;SDS011;17112;48.636;10.152;2023-07-28T06:47:28;4.90;;;2.22;;
30303;SDS011;17112;48.636;10.152;2023-07-28T06:49:54;3.67;;;2.60;;
30303;SDS011;17112;48.636;10.152;2023-07-28T06:52:20;9.27;;;2.80;;
30303;SDS011;17112;48.636;10.152;2023-07-28T06:54:46;7.18;;;2.58;;
30303;SDS011;17112;48.636;10.152;2023-07-28T06:57:14;3.97;;;2.40;;
30303;SDS011;17112;48.636;10.152;2023-07-28T06:59:40;3.60;;;2.13;;
30303;SDS011;17112;48.636;10.152;2023-07-28T07:02:06;4.95;;;2.95;;
30303;SDS011;17112;48.636;10.152;2023-07-28T07:04:31;4.47;;;2.33;;
30303;SDS011;17112;48.636;10.152;2023-07-28T07:06:57;13.70;;;2.72;;
30303;SDS011;17112;48.636;10.152;2023-07-28T07:09:23;3.60;;;2.75;;
30303;SDS011;17112;48.636;10.152;2023-07-28T07:11:49;6.40;;;2.45;;
30303;SDS011;17112;48.636;10.152;2023-07-28T07:14:15;8.27;;;2.70;;
30303;SDS011;17112;48.636;10.152;2023-07-28T07:16:41;4.82;;;2.72;;
30303;SDS011;17112;48.636;10.152;2023-07-28T07:19:07;7.82;;;3.13;;
30303;SDS011;17112;48.636;10.152;2023-07-28T07:21:34;5.90;;;3.53;;
30303;SDS011;17112;48.636;10.152;2023-07-28T07:23:59;3.95;;;2.90;;
30303;SDS011;17112;48.636;10.152;2023-07-28T07:26:25;6.20;;;2.78;;
30303;SDS011;17112;48.636;10.152;2023-07-28T07:28:51;4.53;;;2.85;;
30303;SDS011;17112;48.636;10.152;2023-07-28T07:31:16;8.15;;;3.03;;
30303;SDS011;17112;48.636;10.152;2023-07-28T07:33:42;5.15;;;3.22;;
30303;SDS011;17112;48.636;10.152;2023-07-28T07:36:14;6.80;;;3.15;;
30303;SDS011;17112;48.636;10.152;2023-07-28T07:38:41;4.40;;;2.90;;
30303;SDS011;17112;48.636;10.152;2023-07-28T07:41:07;8.18;;;3.53;;
30303;SDS011;17112;48.636;10.152;2023-07-28T07:43:36;6.22;;;2.60;;
30303;SDS011;17112;48.636;10.152;2023-07-28T07:46:01;4.90;;;2.00;;
30303;SDS011;17112;48.636;10.152;2023-07-28T07:48:27;8.77;;;2.65;;
30303;SDS011;17112;48.636;10.152;2023-07-28T07:50:53;5.95;;;2.53;;
30303;SDS011;17112;48.636;10.152;2023-07-28T07:53:18;7.78;;;2.85;;
30303;SDS011;17112;48.636;10.152;2023-07-28T07:55:44;6.65;;;3.60;;
30303;SDS011;17112;48.636;10.152;2023-07-28T07:58:09;7.97;;;3.97;;
30303;SDS011;17112;48.636;10.152;2023-07-28T08:00:38;9.13;;;4.35;;
30303;SDS011;17112;48.636;10.152;2023-07-28T08:03:04;7.43;;;3.80;;
30303;SDS011;17112;48.636;10.152;2023-07-28T08:05:30;11.05;;;3.50;;
30303;SDS011;17112;48.636;10.152;2023-07-28T08:07:56;4.13;;;3.08;;
30303;SDS011;17112;48.636;10.152;2023-07-28T08:10:21;8.30;;;3.70;;
30303;SDS011;17112;48.636;10.152;2023-07-28T08:12:47;3.78;;;2.88;;
30303;SDS011;17112;48.636;10.152;2023-07-28T08:15:13;5.47;;;3.05;;
30303;SDS011;17112;48.636;10.152;2023-07-28T08:17:39;5.45;;;2.97;;
30303;SDS011;17112;48.636;10.152;2023-07-28T08:20:06;6.00;;;3.60;;
30303;SDS011;17112;48.636;10.152;2023-07-28T08:22:32;4.05;;;2.65;;
30303;SDS011;17112;48.636;10.152;2023-07-28T08:24:58;4.43;;;2.95;;
30303;SDS011;17112;48.636;10.152;2023-07-28T08:27:24;4.63;;;2.60;;
30303;SDS011;17112;48.636;10.152;2023-07-28T08:29:49;4.53;;;2.70;;
30303;SDS011;17112;48.636;10.152;2023-07-28T08:32:15;3.85;;;2.70;;
30303;SDS011;17112;48.636;10.152;2023-07-28T08:34:42;4.38;;;2.88;;
30303;SDS011;17112;48.636;10.152;2023-07-28T08:37:07;4.57;;;3.05;;
30303;SDS011;17112;48.636;10.152;2023-07-28T08:39:33;5.40;;;2.92;;
30303;SDS011;17112;48.636;10.152;2023-07-28T08:42:02;3.40;;;2.38;;
30303;SDS011;17112;48.636;10.152;2023-07-28T08:44:32;3.92;;;2.20;;
30303;SDS011;17112;48.636;10.152;2023-07-28T08:47:02;4.18;;;2.60;;
30303;SDS011;17112;48.636;10.152;2023-07-28T08:49:29;4.18;;;2.17;;
30303;SDS011;17112;48.636;10.152;2023-07-28T08:52:00;3.08;;;2.17;;
30303;SDS011;17112;48.636;10.152;2023-07-28T08:54:27;5.78;;;2.17;;
30303;SDS011;17112;48.636;10.152;2023-07-28T08:56:53;2.15;;;1.90;;
30303;SDS011;17112;48.636;10.152;2023-07-28T08:59:22;2.08;;;1.88;;
30303;SDS011;17112;48.636;10.152;2023-07-28T09:01:50;3.17;;;2.25;;
30303;SDS011;17112;48.636;10.152;2023-07-28T09:04:23;2.10;;;1.90;;
30303;SDS011;17112;48.636;10.152;2023-07-28T09:06:49;7.80;;;2.13;;
30303;SDS011;17112;48.636;10.152;2023-07-28T09:09:16;2.47;;;1.80;;
30303;SDS011;17112;48.636;10.152;2023-07-28T09:11:47;3.72;;;1.95;;
30303;SDS011;17112;48.636;10.152;2023-07-28T09:14:14;2.53;;;2.03;;
30303;SDS011;17112;48.636;10.152;2023-07-28T09:16:44;3.35;;;2.15;;
30303;SDS011;17112;48.636;10.152;2023-07-28T09:19:10;3.30;;;2.08;;
30303;SDS011;17112;48.636;10.152;2023-07-28T09:21:40;2.15;;;1.95;;
30303;SDS011;17112;48.636;10.152;2023-07-28T09:24:09;6.38;;;1.92;;
30303;SDS011;17112;48.636;10.152;2023-07-28T09:26:37;2.00;;;1.60;;
30303;SDS011;17112;48.636;10.152;2023-07-28T09:29:19;3.45;;;2.17;;
30303;SDS011;17112;48.636;10.152;2023-07-28T09:31:46;2.20;;;2.00;;
30303;SDS011;17112;48.636;10.152;2023-07-28T09:34:13;4.40;;;1.90;;
30303;SDS011;17112;48.636;10.152;2023-07-28T09:36:49;3.38;;;1.85;;
30303;SDS011;17112;48.636;10.152;2023-07-28T09:39:15;2.78;;;1.98;;
30303;SDS011;17112;48.636;10.152;2023-07-28T09:41:41;2.70;;;1.90;;
30303;SDS011;17112;48.636;10.152;2023-07-28T09:44:09;2.20;;;1.77;;
30303;SDS011;17112;48.636;10.152;2023-07-28T09:46:35;3.95;;;1.98;;
30303;SDS011;17112;48.636;10.152;2023-07-28T09:51:55;4.38;;;1.75;;
30303;SDS011;17112;48.636;10.152;2023-07-28T09:54:25;3.13;;;1.65;;
30303;SDS011;17112;48.636;10.152;2023-07-28T09:56:55;2.08;;;1.88;;
30303;SDS011;17112;48.636;10.152;2023-07-28T09:59:24;2.95;;;1.85;;
30303;SDS011;17112;48.636;10.152;2023-07-28T10:02:00;3.58;;;1.80;;
30303;SDS011;17112;48.636;10.152;2023-07-28T10:04:27;3.50;;;2.03;;
30303;SDS011;17112;48.636;10.152;2023-07-28T10:06:54;2.60;;;1.80;;
30303;SDS011;17112;48.636;10.152;2023-07-28T10:09:26;3.55;;;1.70;;
30303;SDS011;17112;48.636;10.152;2023-07-28T10:11:53;2.10;;;1.90;;
30303;SDS011;17112;48.636;10.152;2023-07-28T10:14:36;3.38;;;2.00;;
30303;SDS011;17112;48.636;10.152;2023-07-28T10:17:03;1.75;;;1.60;;
30303;SDS011;17112;48.636;10.152;2023-07-28T10:19:34;4.05;;;1.60;;
30303;SDS011;17112;48.636;10.152;2023-07-28T10:22:10;1.95;;;1.60;;
30303;SDS011;17112;48.636;10.152;2023-07-28T10:24:55;2.92;;;2.00;;
30303;SDS011;17112;48.636;10.152;2023-07-28T10:27:34;2.70;;;1.98;;
30303;SDS011;17112;48.636;10.152;2023-07-28T10:30:12;2.28;;;1.60;;
30303;SDS011;17112;48.636;10.152;2023-07-28T10:32:40;4.72;;;2.00;;
30303;SDS011;17112;48.636;10.152;2023-07-28T10:37:39;3.03;;;1.83;;
30303;SDS011;17112;48.636;10.152;2023-07-28T10:42:53;1.50;;;1.40;;
30303;SDS011;17112;48.636;10.152;2023-07-28T10:45:20;4.38;;;1.67;;
30303;SDS011;17112;48.636;10.152;2023-07-28T10:47:50;1.85;;;1.50;;
30303;SDS011;17112;48.636;10.152;2023-07-28T10:50:17;1.83;;;1.60;;
30303;SDS011;17112;48.636;10.152;2023-07-28T10:52:44;1.80;;;1.70;;
30303;SDS011;17112;48.636;10.152;2023-07-28T10:55:18;3.72;;;1.83;;
30303;SDS011;17112;48.636;10.152;2023-07-28T10:57:45;2.10;;;1.83;;
30303;SDS011;17112;48.636;10.152;2023-07-28T11:00:12;1.98;;;1.50;;
30303;SDS011;17112;48.636;10.152;2023-07-28T11:02:47;3.08;;;1.80;;
30303;SDS011;17112;48.636;10.152;2023-07-28T11:08:00;1.77;;;1.45;;
30303;SDS011;17112;48.636;10.152;2023-07-28T11:10:30;1.92;;;1.60;;
30303;SDS011;17112;48.636;10.152;2023-07-28T11:12:57;3.35;;;1.70;;
30303;SDS011;17112;48.636;10.152;2023-07-28T11:15:25;2.95;;;2.10;;
30303;SDS011;17112;48.636;10.152;2023-07-28T11:17:52;4.78;;;1.75;;
30303;SDS011;17112;48.636;10.152;2023-07-28T11:20:18;1.52;;;1.42;;
30303;SDS011;17112;48.636;10.152;2023-07-28T11:22:58;2.42;;;1.42;;
30303;SDS011;17112;48.636;10.152;2023-07-28T11:25:28;2.38;;;1.50;;
30303;SDS011;17112;48.636;10.152;2023-07-28T11:27:55;1.73;;;1.33;;
30303;SDS011;17112;48.636;10.152;2023-07-28T11:30:22;2.53;;;1.50;;
30303;SDS011;17112;48.636;10.152;2023-07-28T11:32:51;2.28;;;1.58;;
30303;SDS011;17112;48.636;10.152;2023-07-28T11:35:20;2.20;;;1.60;;
30303;SDS011;17112;48.636;10.152;2023-07-28T11:37:50;3.65;;;1.60;;
30303;SDS011;17112;48.636;10.152;2023-07-28T11:40:19;2.38;;;1.60;;
30303;SDS011;17112;48.636;10.152;2023-07-28T11:42:53;2.22;;;1.50;;
30303;SDS011;17112;48.636;10.152;2023-07-28T11:45:20;1.73;;;1.63;;
30303;SDS011;17112;48.636;10.152;2023-07-28T11:50:23;2.15;;;1.80;;
30303;SDS011;17112;48.636;10.152;2023-07-28T11:52:53;8.68;;;1.65;;
30303;SDS011;17112;48.636;10.152;2023-07-28T11:55:21;2.97;;;1.55;;
30303;SDS011;17112;48.636;10.152;2023-07-28T11:57:47;1.48;;;1.38;;
30303;SDS011;17112;48.636;10.152;2023-07-28T12:00:13;1.98;;;1.77;;
30303;SDS011;17112;48.636;10.152;2023-07-28T12:02:42;1.95;;;1.70;;
30303;SDS011;17112;48.636;10.152;2023-07-28T12:05:14;2.42;;;1.70;;
30303;SDS011;17112;48.636;10.152;2023-07-28T12:07:41;2.83;;;1.90;;
30303;SDS011;17112;48.636;10.152;2023-07-28T12:10:12;5.00;;;1.90;;
30303;SDS011;17112;48.636;10.152;2023-07-28T12:12:45;3.28;;;2.00;;
30303;SDS011;17112;48.636;10.152;2023-07-28T12:15:24;4.57;;;1.75;;
30303;SDS011;17112;48.636;10.152;2023-07-28T12:20:46;3.15;;;1.70;;
30303;SDS011;17112;48.636;10.152;2023-07-28T12:23:15;2.03;;;1.58;;
30303;SDS011;17112;48.636;10.152;2023-07-28T12:25:42;2.63;;;1.83;;
30303;SDS011;17112;48.636;10.152;2023-07-28T12:28:08;4.00;;;2.10;;
30303;SDS011;17112;48.636;10.152;2023-07-28T12:30:35;3.50;;;2.03;;
30303;SDS011;17112;48.636;10.152;2023-07-28T12:33:02;6.85;;;2.15;;
30303;SDS011;17112;48.636;10.152;2023-07-28T12:35:29;3.92;;;1.73;;
30303;SDS011;17112;48.636;10.152;2023-07-28T12:38:00;2.20;;;1.55;;
30303;SDS011;17112;48.636;10.152;2023-07-28T12:40:29;3.70;;;1.92;;
30303;SDS011;17112;48.636;10.152;2023-07-28T12:42:56;2.05;;;1.70;;
30303;SDS011;17112;48.636;10.152;2023-07-28T12:45:23;2.50;;;1.90;;
30303;SDS011;17112;48.636;10.152;2023-07-28T12:47:51;1.92;;;1.65;;
30303;SDS011;17112;48.636;10.152;2023-07-28T12:50:20;8.70;;;2.63;;
30303;SDS011;17112;48.636;10.152;2023-07-28T12:52:47;1.80;;;1.70;;
30303;SDS011;17112;48.636;10.152;2023-07-28T12:55:13;2.03;;;1.70;;
30303;SDS011;17112;48.636;10.152;2023-07-28T12:57:40;3.25;;;1.90;;
30303;SDS011;17112;48.636;10.152;2023-07-28T13:00:06;2.80;;;2.08;;
30303;SDS011;17112;48.636;10.152;2023-07-28T13:02:38;3.13;;;2.10;;
30303;SDS011;17112;48.636;10.152;2023-07-28T13:05:09;2.55;;;1.60;;
30303;SDS011;17112;48.636;10.152;2023-07-28T13:07:36;3.88;;;2.25;;
30303;SDS011;17112;48.636;10.152;2023-07-28T13:10:02;4.72;;;2.42;;
30303;SDS011;17112;48.636;10.152;2023-07-28T13:12:28;3.35;;;2.05;;
30303;SDS011;17112;48.636;10.152;2023-07-28T13:14:54;2.38;;;1.88;;
30303;SDS011;17112;48.636;10.152;2023-07-28T13:17:20;11.90;;;2.08;;
30303;SDS011;17112;48.636;10.152;2023-07-28T13:19:46;6.30;;;1.90;;
30303;SDS011;17112;48.636;10.152;2023-07-28T13:22:11;3.80;;;2.33;;
30303;SDS011;17112;48.636;10.152;2023-07-28T13:24:37;2.72;;;2.17;;
30303;SDS011;17112;48.636;10.152;2023-07-28T13:27:03;2.60;;;2.05;;
30303;SDS011;17112;48.636;10.152;2023-07-28T13:29:29;2.30;;;1.70;;
30303;SDS011;17112;48.636;10.152;2023-07-28T13:31:58;2.88;;;2.15;;
30303;SDS011;17112;48.636;10.152;2023-07-28T13:34:27;2.72;;;2.10;;
30303;SDS011;17112;48.636;10.152;2023-07-28T13:36:54;3.03;;;2.22;;
30303;SDS011;17112;48.636;10.152;2023-07-28T13:39:20;2.70;;;1.88;;
30303;SDS011;17112;48.636;10.152;2023-07-28T13:41:46;3.25;;;1.85;;
30303;SDS011;17112;48.636;10.152;2023-07-28T13:44:12;4.45;;;2.17;;
30303;SDS011;17112;48.636;10.152;2023-07-28T13:46:37;3.63;;;2.28;;
30303;SDS011;17112;48.636;10.152;2023-07-28T13:49:03;3.75;;;2.10;;
30303;SDS011;17112;48.636;10.152;2023-07-28T13:51:29;2.03;;;1.60;;
30303;SDS011;17112;48.636;10.152;2023-07-28T13:53:54;6.43;;;5.55;;
30303;SDS011;17112;48.636;10.152;2023-07-28T13:56:20;3.17;;;2.72;;
30303;SDS011;17112;48.636;10.152;2023-07-28T13:58:46;2.38;;;2.05;;
30303;SDS011;17112;48.636;10.152;2023-07-28T14:01:11;2.67;;;2.28;;
30303;SDS011;17112;48.636;10.152;2023-07-28T14:03:37;2.10;;;1.40;;
30303;SDS011;17112;48.636;10.152;2023-07-28T14:06:02;2.22;;;1.75;;
30303;SDS011;17112;48.636;10.152;2023-07-28T14:08:28;2.85;;;1.90;;
30303;SDS011;17112;48.636;10.152;2023-07-28T14:10:54;3.70;;;2.20;;
30303;SDS011;17112;48.636;10.152;2023-07-28T14:13:20;2.63;;;1.85;;
30303;SDS011;17112;48.636;10.152;2023-07-28T14:15:46;2.25;;;1.60;;
30303;SDS011;17112;48.636;10.152;2023-07-28T14:18:12;2.05;;;1.60;;
30303;SDS011;17112;48.636;10.152;2023-07-28T14:20:38;2.53;;;1.60;;
30303;SDS011;17112;48.636;10.152;2023-07-28T14:23:19;2.33;;;1.70;;
30303;SDS011;17112;48.636;10.152;2023-07-28T14:25:46;1.52;;;1.42;;
30303;SDS011;17112;48.636;10.152;2023-07-28T14:28:12;5.05;;;1.60;;
30303;SDS011;17112;48.636;10.152;2023-07-28T14:30:38;3.03;;;1.35;;
30303;SDS011;17112;48.636;10.152;2023-07-28T14:33:03;5.25;;;1.40;;
30303;SDS011;17112;48.636;10.152;2023-07-28T14:35:29;2.35;;;1.65;;
30303;SDS011;17112;48.636;10.152;2023-07-28T14:37:54;1.90;;;1.52;;
30303;SDS011;17112;48.636;10.152;2023-07-28T14:40:20;1.58;;;1.40;;
30303;SDS011;17112;48.636;10.152;2023-07-28T14:42:46;1.80;;;1.70;;
30303;SDS011;17112;48.636;10.152;2023-07-28T14:45:11;1.98;;;1.45;;
30303;SDS011;17112;48.636;10.152;2023-07-28T14:47:37;1.63;;;1.38;;
30303;SDS011;17112;48.636;10.152;2023-07-28T14:50:03;1.60;;;1.50;;
30303;SDS011;17112;48.636;10.152;2023-07-28T14:52:29;1.90;;;1.70;;